sensor_id;sensor_type;location;lat;lon;timestamp;P1;durP1;ratioP1;P2;durP2;ratioP2
75626;SDS011;67372;49.404;11.034;2024-02-21T00:01:15;5.20;;;2.17;;
75626;SDS011;67372;49.404;11.034;2024-02-21T00:03:42;4.85;;;1.95;;
75626;SDS011;67372;49.404;11.034;2024-02-21T00:06:09;7.07;;;2.58;;
75626;SDS011;67372;49.404;11.034;2024-02-21T00:19:23;6.35;;;2.30;;
75626;SDS011;67372;49.404;11.034;2024-02-21T00:21:50;6.03;;;2.13;;
75626;SDS011;67372;49.404;11.034;2024-02-21T00:24:16;5.55;;;2.33;;
75626;SDS011;67372;49.404;11.034;2024-02-21T00:26:42;5.10;;;2.38;;
75626;SDS011;67372;49.404;11.034;2024-02-21T00:29:09;9.40;;;2.58;;
75626;SDS011;67372;49.404;11.034;2024-02-21T00:31:35;9.30;;;2.70;;
75626;SDS011;67372;49.404;11.034;2024-02-21T00:34:01;4.43;;;2.78;;
75626;SDS011;67372;49.404;11.034;2024-02-21T00:36:28;6.40;;;2.20;;
75626;SDS011;67372;49.404;11.034;2024-02-21T00:38:54;6.53;;;2.17;;
75626;SDS011;67372;49.404;11.034;2024-02-21T00:41:21;9.77;;;2.63;;
75626;SDS011;67372;49.404;11.034;2024-02-21T00:43:47;7.97;;;2.22;;
75626;SDS011;67372;49.404;11.034;2024-02-21T00:46:13;7.90;;;3.00;;
75626;SDS011;67372;49.404;11.034;2024-02-21T00:48:40;8.95;;;2.80;;
75626;SDS011;67372;49.404;11.034;2024-02-21T00:51:06;4.90;;;1.98;;
75626;SDS011;67372;49.404;11.034;2024-02-21T00:53:33;5.70;;;2.35;;
75626;SDS011;67372;49.404;11.034;2024-02-21T00:55:59;6.47;;;2.25;;
75626;SDS011;67372;49.404;11.034;2024-02-21T00:58:25;6.03;;;2.47;;
75626;SDS011;67372;49.404;11.034;2024-02-21T01:00:52;6.05;;;2.55;;
75626;SDS011;67372;49.404;11.034;2024-02-21T01:03:18;5.32;;;2.90;;
75626;SDS011;67372;49.404;11.034;2024-02-21T01:05:45;8.50;;;2.53;;
75626;SDS011;67372;49.404;11.034;2024-02-21T01:08:11;5.45;;;2.42;;
75626;SDS011;67372;49.404;11.034;2024-02-21T01:10:37;7.00;;;2.38;;
75626;SDS011;67372;49.404;11.034;2024-02-21T01:13:04;7.93;;;2.63;;
75626;SDS011;67372;49.404;11.034;2024-02-21T01:15:30;7.25;;;2.58;;
75626;SDS011;67372;49.404;11.034;2024-02-21T01:17:57;6.55;;;2.88;;
75626;SDS011;67372;49.404;11.034;2024-02-21T01:20:23;8.70;;;2.47;;
75626;SDS011;67372;49.404;11.034;2024-02-21T01:22:49;9.43;;;2.22;;
75626;SDS011;67372;49.404;11.034;2024-02-21T01:25:16;5.47;;;2.20;;
75626;SDS011;67372;49.404;11.034;2024-02-21T01:27:42;8.25;;;2.65;;
75626;SDS011;67372;49.404;11.034;2024-02-21T01:30:09;8.13;;;2.58;;
75626;SDS011;67372;49.404;11.034;2024-02-21T01:32:36;7.13;;;2.53;;
75626;SDS011;67372;49.404;11.034;2024-02-21T01:35:02;6.53;;;2.08;;
75626;SDS011;67372;49.404;11.034;2024-02-21T01:37:29;6.68;;;2.40;;
75626;SDS011;67372;49.404;11.034;2024-02-21T01:39:55;5.85;;;2.00;;
75626;SDS011;67372;49.404;11.034;2024-02-21T01:42:22;5.72;;;2.28;;
75626;SDS011;67372;49.404;11.034;2024-02-21T01:44:48;8.43;;;2.53;;
75626;SDS011;67372;49.404;11.034;2024-02-21T01:47:14;9.00;;;2.33;;
75626;SDS011;67372;49.404;11.034;2024-02-21T01:49:41;6.78;;;2.10;;
75626;SDS011;67372;49.404;11.034;2024-02-21T01:52:08;7.28;;;2.83;;
75626;SDS011;67372;49.404;11.034;2024-02-21T01:54:37;6.70;;;2.58;;
75626;SDS011;67372;49.404;11.034;2024-02-21T01:57:03;6.25;;;2.40;;
75626;SDS011;67372;49.404;11.034;2024-02-21T01:59:31;7.50;;;2.22;;
75626;SDS011;67372;49.404;11.034;2024-02-21T02:01:57;7.28;;;2.35;;
75626;SDS011;67372;49.404;11.034;2024-02-21T02:04:24;6.65;;;2.40;;
75626;SDS011;67372;49.404;11.034;2024-02-21T02:06:51;7.22;;;2.45;;
75626;SDS011;67372;49.404;11.034;2024-02-21T02:09:17;6.80;;;2.35;;
75626;SDS011;67372;49.404;11.034;2024-02-21T02:11:44;4.97;;;2.03;;
75626;SDS011;67372;49.404;11.034;2024-02-21T02:14:10;8.52;;;2.88;;
75626;SDS011;67372;49.404;11.034;2024-02-21T02:16:37;8.07;;;2.10;;
75626;SDS011;67372;49.404;11.034;2024-02-21T02:19:03;7.13;;;2.60;;
75626;SDS011;67372;49.404;11.034;2024-02-21T02:21:30;5.45;;;2.15;;
75626;SDS011;67372;49.404;11.034;2024-02-21T02:24:00;9.13;;;2.70;;
75626;SDS011;67372;49.404;11.034;2024-02-21T02:26:27;8.20;;;2.35;;
75626;SDS011;67372;49.404;11.034;2024-02-21T02:28:54;5.40;;;2.42;;
75626;SDS011;67372;49.404;11.034;2024-02-21T02:31:20;6.72;;;2.45;;
75626;SDS011;67372;49.404;11.034;2024-02-21T02:33:46;9.27;;;2.28;;
75626;SDS011;67372;49.404;11.034;2024-02-21T02:36:13;7.43;;;2.65;;
75626;SDS011;67372;49.404;11.034;2024-02-21T02:38:39;5.53;;;1.98;;
75626;SDS011;67372;49.404;11.034;2024-02-21T02:41:06;7.03;;;2.47;;
75626;SDS011;67372;49.404;11.034;2024-02-21T02:43:32;6.18;;;2.30;;
75626;SDS011;67372;49.404;11.034;2024-02-21T02:45:58;7.78;;;2.38;;
75626;SDS011;67372;49.404;11.034;2024-02-21T02:48:25;3.85;;;1.90;;
75626;SDS011;67372;49.404;11.034;2024-02-21T02:50:51;8.18;;;2.60;;
75626;SDS011;67372;49.404;11.034;2024-02-21T02:53:18;7.03;;;2.45;;
75626;SDS011;67372;49.404;11.034;2024-02-21T02:55:44;6.32;;;2.80;;
75626;SDS011;67372;49.404;11.034;2024-02-21T02:58:10;4.95;;;2.05;;
75626;SDS011;67372;49.404;11.034;2024-02-21T03:00:37;5.32;;;2.08;;
75626;SDS011;67372;49.404;11.034;2024-02-21T03:03:04;5.28;;;2.05;;
75626;SDS011;67372;49.404;11.034;2024-02-21T03:05:30;4.90;;;2.00;;
75626;SDS011;67372;49.404;11.034;2024-02-21T03:07:57;6.43;;;2.40;;
75626;SDS011;67372;49.404;11.034;2024-02-21T03:10:24;5.55;;;2.25;;
75626;SDS011;67372;49.404;11.034;2024-02-21T03:12:50;4.50;;;1.95;;
75626;SDS011;67372;49.404;11.034;2024-02-21T03:15:16;6.18;;;2.28;;
75626;SDS011;67372;49.404;11.034;2024-02-21T03:17:43;6.53;;;2.35;;
75626;SDS011;67372;49.404;11.034;2024-02-21T03:20:10;6.05;;;2.50;;
75626;SDS011;67372;49.404;11.034;2024-02-21T03:22:38;6.10;;;2.17;;
75626;SDS011;67372;49.404;11.034;2024-02-21T03:25:06;8.05;;;2.17;;
75626;SDS011;67372;49.404;11.034;2024-02-21T03:27:33;6.55;;;2.45;;
75626;SDS011;67372;49.404;11.034;2024-02-21T03:30:00;6.43;;;2.15;;
75626;SDS011;67372;49.404;11.034;2024-02-21T03:32:26;8.75;;;2.92;;
75626;SDS011;67372;49.404;11.034;2024-02-21T03:34:53;6.88;;;2.47;;
75626;SDS011;67372;49.404;11.034;2024-02-21T03:37:19;5.32;;;2.33;;
75626;SDS011;67372;49.404;11.034;2024-02-21T03:39:45;10.10;;;2.35;;
75626;SDS011;67372;49.404;11.034;2024-02-21T03:42:12;6.85;;;2.40;;
75626;SDS011;67372;49.404;11.034;2024-02-21T03:44:38;8.13;;;2.80;;
75626;SDS011;67372;49.404;11.034;2024-02-21T03:47:04;4.03;;;2.05;;
75626;SDS011;67372;49.404;11.034;2024-02-21T03:49:31;6.25;;;2.25;;
75626;SDS011;67372;49.404;11.034;2024-02-21T03:51:57;3.90;;;2.03;;
75626;SDS011;67372;49.404;11.034;2024-02-21T03:54:24;6.72;;;2.00;;
75626;SDS011;67372;49.404;11.034;2024-02-21T03:56:50;7.30;;;2.40;;
75626;SDS011;67372;49.404;11.034;2024-02-21T03:59:16;3.63;;;1.98;;
75626;SDS011;67372;49.404;11.034;2024-02-21T04:01:43;9.80;;;2.20;;
75626;SDS011;67372;49.404;11.034;2024-02-21T04:04:10;6.05;;;2.30;;
75626;SDS011;67372;49.404;11.034;2024-02-21T04:06:37;6.88;;;2.28;;
75626;SDS011;67372;49.404;11.034;2024-02-21T04:09:11;5.72;;;2.25;;
75626;SDS011;67372;49.404;11.034;2024-02-21T04:11:38;6.05;;;1.92;;
75626;SDS011;67372;49.404;11.034;2024-02-21T04:14:04;7.15;;;2.50;;
75626;SDS011;67372;49.404;11.034;2024-02-21T04:16:30;7.20;;;2.22;;
75626;SDS011;67372;49.404;11.034;2024-02-21T04:18:57;6.68;;;2.25;;
75626;SDS011;67372;49.404;11.034;2024-02-21T04:21:23;6.40;;;2.50;;
75626;SDS011;67372;49.404;11.034;2024-02-21T04:23:49;5.28;;;2.17;;
75626;SDS011;67372;49.404;11.034;2024-02-21T04:26:16;6.78;;;2.05;;
75626;SDS011;67372;49.404;11.034;2024-02-21T04:28:44;6.43;;;2.20;;
75626;SDS011;67372;49.404;11.034;2024-02-21T04:31:11;5.47;;;2.20;;
75626;SDS011;67372;49.404;11.034;2024-02-21T04:33:38;7.40;;;2.25;;
75626;SDS011;67372;49.404;11.034;2024-02-21T04:36:04;6.45;;;2.42;;
75626;SDS011;67372;49.404;11.034;2024-02-21T04:38:31;4.60;;;2.30;;
75626;SDS011;67372;49.404;11.034;2024-02-21T04:40:57;5.75;;;2.67;;
75626;SDS011;67372;49.404;11.034;2024-02-21T04:43:24;4.30;;;2.03;;
75626;SDS011;67372;49.404;11.034;2024-02-21T04:45:51;5.80;;;1.98;;
75626;SDS011;67372;49.404;11.034;2024-02-21T04:48:17;5.45;;;2.45;;
75626;SDS011;67372;49.404;11.034;2024-02-21T04:50:43;4.03;;;2.25;;
75626;SDS011;67372;49.404;11.034;2024-02-21T04:53:10;6.15;;;2.33;;
75626;SDS011;67372;49.404;11.034;2024-02-21T04:55:36;5.97;;;2.22;;
75626;SDS011;67372;49.404;11.034;2024-02-21T04:58:03;5.38;;;2.35;;
75626;SDS011;67372;49.404;11.034;2024-02-21T05:00:29;9.07;;;2.60;;
75626;SDS011;67372;49.404;11.034;2024-02-21T05:02:55;6.50;;;2.08;;
75626;SDS011;67372;49.404;11.034;2024-02-21T05:05:22;4.70;;;2.20;;
75626;SDS011;67372;49.404;11.034;2024-02-21T05:07:48;5.38;;;2.25;;
75626;SDS011;67372;49.404;11.034;2024-02-21T05:10:15;5.18;;;1.90;;
75626;SDS011;67372;49.404;11.034;2024-02-21T05:12:41;4.45;;;2.03;;
75626;SDS011;67372;49.404;11.034;2024-02-21T05:15:08;7.43;;;2.40;;
75626;SDS011;67372;49.404;11.034;2024-02-21T05:17:34;5.95;;;2.42;;
75626;SDS011;67372;49.404;11.034;2024-02-21T05:20:01;9.15;;;2.30;;
75626;SDS011;67372;49.404;11.034;2024-02-21T05:22:27;6.30;;;2.15;;
75626;SDS011;67372;49.404;11.034;2024-02-21T05:24:54;7.18;;;2.60;;
75626;SDS011;67372;49.404;11.034;2024-02-21T05:27:20;5.72;;;2.20;;
75626;SDS011;67372;49.404;11.034;2024-02-21T05:29:46;5.07;;;2.53;;
75626;SDS011;67372;49.404;11.034;2024-02-21T05:32:13;7.18;;;2.50;;
75626;SDS011;67372;49.404;11.034;2024-02-21T05:34:39;4.70;;;2.00;;
75626;SDS011;67372;49.404;11.034;2024-02-21T05:37:06;6.97;;;2.53;;
75626;SDS011;67372;49.404;11.034;2024-02-21T05:39:32;5.43;;;2.20;;
75626;SDS011;67372;49.404;11.034;2024-02-21T05:41:58;7.47;;;2.58;;
75626;SDS011;67372;49.404;11.034;2024-02-21T05:44:25;9.95;;;2.15;;
75626;SDS011;67372;49.404;11.034;2024-02-21T05:46:51;10.77;;;2.88;;
75626;SDS011;67372;49.404;11.034;2024-02-21T05:49:18;7.38;;;2.70;;
75626;SDS011;67372;49.404;11.034;2024-02-21T05:51:44;5.47;;;2.33;;
75626;SDS011;67372;49.404;11.034;2024-02-21T05:54:10;6.50;;;2.58;;
75626;SDS011;67372;49.404;11.034;2024-02-21T05:56:37;8.68;;;2.58;;
75626;SDS011;67372;49.404;11.034;2024-02-21T05:59:03;5.43;;;2.10;;
75626;SDS011;67372;49.404;11.034;2024-02-21T06:01:30;7.05;;;3.25;;
75626;SDS011;67372;49.404;11.034;2024-02-21T06:03:56;9.35;;;3.28;;
75626;SDS011;67372;49.404;11.034;2024-02-21T06:06:23;7.70;;;2.78;;
75626;SDS011;67372;49.404;11.034;2024-02-21T06:08:49;7.82;;;2.67;;
75626;SDS011;67372;49.404;11.034;2024-02-21T06:11:16;6.25;;;2.13;;
75626;SDS011;67372;49.404;11.034;2024-02-21T06:13:42;7.32;;;2.10;;
75626;SDS011;67372;49.404;11.034;2024-02-21T06:16:08;6.65;;;2.58;;
75626;SDS011;67372;49.404;11.034;2024-02-21T06:18:35;6.70;;;2.33;;
75626;SDS011;67372;49.404;11.034;2024-02-21T06:21:02;6.70;;;2.35;;
75626;SDS011;67372;49.404;11.034;2024-02-21T06:23:29;5.07;;;2.33;;
75626;SDS011;67372;49.404;11.034;2024-02-21T06:25:55;5.65;;;1.90;;
75626;SDS011;67372;49.404;11.034;2024-02-21T06:28:21;7.65;;;2.22;;
75626;SDS011;67372;49.404;11.034;2024-02-21T06:30:48;5.07;;;2.67;;
75626;SDS011;67372;49.404;11.034;2024-02-21T06:33:14;7.32;;;2.78;;
75626;SDS011;67372;49.404;11.034;2024-02-21T06:35:41;7.30;;;2.65;;
75626;SDS011;67372;49.404;11.034;2024-02-21T06:38:07;8.63;;;2.50;;
75626;SDS011;67372;49.404;11.034;2024-02-21T06:40:34;7.20;;;2.63;;
75626;SDS011;67372;49.404;11.034;2024-02-21T06:43:00;6.30;;;2.85;;
75626;SDS011;67372;49.404;11.034;2024-02-21T06:45:26;8.88;;;2.90;;
75626;SDS011;67372;49.404;11.034;2024-02-21T06:47:54;6.65;;;2.67;;
75626;SDS011;67372;49.404;11.034;2024-02-21T06:50:20;9.07;;;3.08;;
75626;SDS011;67372;49.404;11.034;2024-02-21T06:52:47;8.13;;;2.80;;
75626;SDS011;67372;49.404;11.034;2024-02-21T06:55:13;7.93;;;3.22;;
75626;SDS011;67372;49.404;11.034;2024-02-21T07:00:14;9.48;;;2.83;;
75626;SDS011;67372;49.404;11.034;2024-02-21T07:02:40;6.43;;;3.05;;
75626;SDS011;67372;49.404;11.034;2024-02-21T07:05:07;6.25;;;2.20;;
75626;SDS011;67372;49.404;11.034;2024-02-21T07:07:34;6.30;;;2.33;;
75626;SDS011;67372;49.404;11.034;2024-02-21T07:10:00;9.75;;;2.53;;
75626;SDS011;67372;49.404;11.034;2024-02-21T07:12:27;9.23;;;2.72;;
75626;SDS011;67372;49.404;11.034;2024-02-21T07:14:53;7.22;;;2.55;;
75626;SDS011;67372;49.404;11.034;2024-02-21T07:17:19;11.38;;;2.92;;
75626;SDS011;67372;49.404;11.034;2024-02-21T07:19:46;10.25;;;4.47;;
75626;SDS011;67372;49.404;11.034;2024-02-21T07:22:12;10.48;;;4.07;;
75626;SDS011;67372;49.404;11.034;2024-02-21T07:24:39;19.40;;;11.48;;
75626;SDS011;67372;49.404;11.034;2024-02-21T07:27:05;9.45;;;3.55;;
75626;SDS011;67372;49.404;11.034;2024-02-21T07:29:31;7.63;;;3.75;;
75626;SDS011;67372;49.404;11.034;2024-02-21T07:31:58;12.35;;;6.47;;
75626;SDS011;67372;49.404;11.034;2024-02-21T07:34:24;6.93;;;3.33;;
75626;SDS011;67372;49.404;11.034;2024-02-21T07:36:51;7.43;;;3.90;;
75626;SDS011;67372;49.404;11.034;2024-02-21T07:39:17;8.55;;;3.10;;
75626;SDS011;67372;49.404;11.034;2024-02-21T07:41:44;9.07;;;3.10;;
75626;SDS011;67372;49.404;11.034;2024-02-21T07:44:10;5.68;;;2.85;;
75626;SDS011;67372;49.404;11.034;2024-02-21T07:46:36;7.13;;;3.28;;
75626;SDS011;67372;49.404;11.034;2024-02-21T07:49:03;7.50;;;3.10;;
75626;SDS011;67372;49.404;11.034;2024-02-21T07:51:29;5.55;;;2.55;;
75626;SDS011;67372;49.404;11.034;2024-02-21T07:53:56;7.60;;;2.38;;
75626;SDS011;67372;49.404;11.034;2024-02-21T07:56:22;6.50;;;2.63;;
75626;SDS011;67372;49.404;11.034;2024-02-21T07:58:48;8.15;;;2.58;;
75626;SDS011;67372;49.404;11.034;2024-02-21T08:01:21;6.60;;;2.90;;
75626;SDS011;67372;49.404;11.034;2024-02-21T08:03:48;4.80;;;2.58;;
75626;SDS011;67372;49.404;11.034;2024-02-21T08:06:14;7.68;;;2.88;;
75626;SDS011;67372;49.404;11.034;2024-02-21T08:08:41;7.45;;;2.88;;
75626;SDS011;67372;49.404;11.034;2024-02-21T08:11:07;7.75;;;3.10;;
75626;SDS011;67372;49.404;11.034;2024-02-21T08:13:33;7.95;;;2.58;;
75626;SDS011;67372;49.404;11.034;2024-02-21T08:16:00;11.73;;;3.08;;
75626;SDS011;67372;49.404;11.034;2024-02-21T08:18:26;5.57;;;2.28;;
75626;SDS011;67372;49.404;11.034;2024-02-21T08:20:53;6.85;;;3.03;;
75626;SDS011;67372;49.404;11.034;2024-02-21T08:23:22;5.68;;;2.13;;
75626;SDS011;67372;49.404;11.034;2024-02-21T08:25:49;5.47;;;2.30;;
75626;SDS011;67372;49.404;11.034;2024-02-21T08:28:16;4.75;;;1.88;;
75626;SDS011;67372;49.404;11.034;2024-02-21T08:30:42;4.80;;;2.10;;
75626;SDS011;67372;49.404;11.034;2024-02-21T08:33:08;5.47;;;2.20;;
75626;SDS011;67372;49.404;11.034;2024-02-21T08:35:35;5.35;;;2.22;;
75626;SDS011;67372;49.404;11.034;2024-02-21T08:38:01;5.82;;;2.30;;
75626;SDS011;67372;49.404;11.034;2024-02-21T08:40:28;7.38;;;2.10;;
75626;SDS011;67372;49.404;11.034;2024-02-21T08:42:54;8.05;;;2.28;;
75626;SDS011;67372;49.404;11.034;2024-02-21T08:45:21;6.43;;;2.20;;
75626;SDS011;67372;49.404;11.034;2024-02-21T08:47:47;7.10;;;2.60;;
75626;SDS011;67372;49.404;11.034;2024-02-21T08:50:13;6.20;;;2.83;;
75626;SDS011;67372;49.404;11.034;2024-02-21T08:52:53;5.82;;;1.90;;
75626;SDS011;67372;49.404;11.034;2024-02-21T08:55:20;5.90;;;1.98;;
75626;SDS011;67372;49.404;11.034;2024-02-21T08:57:46;5.00;;;2.00;;
75626;SDS011;67372;49.404;11.034;2024-02-21T09:00:13;3.65;;;1.75;;
75626;SDS011;67372;49.404;11.034;2024-02-21T09:02:40;8.10;;;1.85;;
75626;SDS011;67372;49.404;11.034;2024-02-21T09:05:07;4.00;;;1.52;;
75626;SDS011;67372;49.404;11.034;2024-02-21T09:07:34;5.50;;;2.13;;
75626;SDS011;67372;49.404;11.034;2024-02-21T09:10:00;3.95;;;1.80;;
75626;SDS011;67372;49.404;11.034;2024-02-21T09:12:27;5.88;;;2.08;;
75626;SDS011;67372;49.404;11.034;2024-02-21T09:14:53;4.97;;;1.80;;
75626;SDS011;67372;49.404;11.034;2024-02-21T09:17:19;5.78;;;1.80;;
75626;SDS011;67372;49.404;11.034;2024-02-21T09:19:46;5.15;;;1.73;;
75626;SDS011;67372;49.404;11.034;2024-02-21T09:22:13;5.85;;;2.00;;
75626;SDS011;67372;49.404;11.034;2024-02-21T09:24:40;6.13;;;2.20;;
75626;SDS011;67372;49.404;11.034;2024-02-21T09:27:06;5.50;;;1.98;;
75626;SDS011;67372;49.404;11.034;2024-02-21T09:29:32;4.00;;;1.58;;
75626;SDS011;67372;49.404;11.034;2024-02-21T09:31:59;5.13;;;2.22;;
75626;SDS011;67372;49.404;11.034;2024-02-21T09:34:26;5.28;;;2.15;;
75626;SDS011;67372;49.404;11.034;2024-02-21T09:36:52;7.10;;;2.17;;
75626;SDS011;67372;49.404;11.034;2024-02-21T09:39:19;5.63;;;2.13;;
75626;SDS011;67372;49.404;11.034;2024-02-21T09:41:47;4.28;;;1.90;;
75626;SDS011;67372;49.404;11.034;2024-02-21T09:44:16;6.93;;;2.05;;
75626;SDS011;67372;49.404;11.034;2024-02-21T09:49:26;6.68;;;1.75;;
75626;SDS011;67372;49.404;11.034;2024-02-21T09:51:57;7.88;;;2.20;;
75626;SDS011;67372;49.404;11.034;2024-02-21T09:54:23;5.22;;;1.95;;
75626;SDS011;67372;49.404;11.034;2024-02-21T09:56:50;6.10;;;2.42;;
75626;SDS011;67372;49.404;11.034;2024-02-21T09:59:16;4.43;;;2.03;;
75626;SDS011;67372;49.404;11.034;2024-02-21T10:01:43;6.07;;;1.83;;
75626;SDS011;67372;49.404;11.034;2024-02-21T10:04:10;4.97;;;2.13;;
75626;SDS011;67372;49.404;11.034;2024-02-21T10:06:36;4.28;;;1.65;;
75626;SDS011;67372;49.404;11.034;2024-02-21T10:09:03;5.65;;;2.08;;
75626;SDS011;67372;49.404;11.034;2024-02-21T10:11:29;4.88;;;1.63;;
75626;SDS011;67372;49.404;11.034;2024-02-21T10:14:05;4.45;;;1.55;;
75626;SDS011;67372;49.404;11.034;2024-02-21T10:16:33;4.40;;;1.48;;
75626;SDS011;67372;49.404;11.034;2024-02-21T10:19:00;4.88;;;1.50;;
75626;SDS011;67372;49.404;11.034;2024-02-21T10:21:26;5.07;;;1.60;;
75626;SDS011;67372;49.404;11.034;2024-02-21T10:23:53;4.78;;;2.08;;
75626;SDS011;67372;49.404;11.034;2024-02-21T10:26:19;6.55;;;2.88;;
75626;SDS011;67372;49.404;11.034;2024-02-21T10:28:49;7.95;;;2.92;;
75626;SDS011;67372;49.404;11.034;2024-02-21T10:31:23;8.50;;;2.80;;
75626;SDS011;67372;49.404;11.034;2024-02-21T10:33:57;7.00;;;3.10;;
75626;SDS011;67372;49.404;11.034;2024-02-21T10:36:25;3.13;;;1.35;;
75626;SDS011;67372;49.404;11.034;2024-02-21T10:38:51;6.15;;;1.80;;
75626;SDS011;67372;49.404;11.034;2024-02-21T10:41:19;4.53;;;2.20;;
75626;SDS011;67372;49.404;11.034;2024-02-21T10:43:53;4.50;;;1.52;;
75626;SDS011;67372;49.404;11.034;2024-02-21T10:46:21;4.43;;;1.48;;
75626;SDS011;67372;49.404;11.034;2024-02-21T10:48:51;5.05;;;1.58;;
75626;SDS011;67372;49.404;11.034;2024-02-21T10:51:43;3.10;;;1.73;;
75626;SDS011;67372;49.404;11.034;2024-02-21T10:54:19;5.25;;;1.55;;
75626;SDS011;67372;49.404;11.034;2024-02-21T10:56:50;5.28;;;1.75;;
75626;SDS011;67372;49.404;11.034;2024-02-21T10:59:17;3.75;;;1.55;;
75626;SDS011;67372;49.404;11.034;2024-02-21T11:01:44;2.97;;;1.50;;
75626;SDS011;67372;49.404;11.034;2024-02-21T11:04:11;4.75;;;1.48;;
75626;SDS011;67372;49.404;11.034;2024-02-21T11:06:38;3.00;;;1.67;;
75626;SDS011;67372;49.404;11.034;2024-02-21T11:09:06;2.55;;;1.40;;
75626;SDS011;67372;49.404;11.034;2024-02-21T11:11:34;6.35;;;1.65;;
75626;SDS011;67372;49.404;11.034;2024-02-21T11:16:38;3.45;;;1.70;;
75626;SDS011;67372;49.404;11.034;2024-02-21T11:19:08;6.53;;;1.85;;
75626;SDS011;67372;49.404;11.034;2024-02-21T11:21:37;5.43;;;1.65;;
75626;SDS011;67372;49.404;11.034;2024-02-21T11:24:04;5.20;;;1.42;;
75626;SDS011;67372;49.404;11.034;2024-02-21T11:26:30;3.20;;;1.55;;
75626;SDS011;67372;49.404;11.034;2024-02-21T11:29:00;6.45;;;2.05;;
75626;SDS011;67372;49.404;11.034;2024-02-21T11:31:37;5.97;;;1.67;;
75626;SDS011;67372;49.404;11.034;2024-02-21T11:34:09;4.82;;;1.77;;
75626;SDS011;67372;49.404;11.034;2024-02-21T11:36:36;3.30;;;1.42;;
75626;SDS011;67372;49.404;11.034;2024-02-21T11:39:12;3.55;;;1.42;;
75626;SDS011;67372;49.404;11.034;2024-02-21T11:41:39;5.63;;;1.60;;
75626;SDS011;67372;49.404;11.034;2024-02-21T11:44:05;4.85;;;1.40;;
75626;SDS011;67372;49.404;11.034;2024-02-21T11:46:31;4.68;;;1.63;;
75626;SDS011;67372;49.404;11.034;2024-02-21T11:48:58;2.70;;;1.30;;
75626;SDS011;67372;49.404;11.034;2024-02-21T11:51:25;5.57;;;1.67;;
75626;SDS011;67372;49.404;11.034;2024-02-21T11:53:52;3.83;;;1.50;;
75626;SDS011;67372;49.404;11.034;2024-02-21T11:56:26;4.30;;;1.60;;
75626;SDS011;67372;49.404;11.034;2024-02-21T11:58:53;3.80;;;1.50;;
75626;SDS011;67372;49.404;11.034;2024-02-21T12:01:19;3.97;;;1.63;;
75626;SDS011;67372;49.404;11.034;2024-02-21T12:03:46;4.28;;;1.52;;
75626;SDS011;67372;49.404;11.034;2024-02-21T12:06:12;2.38;;;1.30;;
75626;SDS011;67372;49.404;11.034;2024-02-21T12:08:42;5.20;;;1.42;;
75626;SDS011;67372;49.404;11.034;2024-02-21T12:11:16;4.53;;;1.50;;
75626;SDS011;67372;49.404;11.034;2024-02-21T12:16:09;4.45;;;1.48;;
75626;SDS011;67372;49.404;11.034;2024-02-21T12:18:36;5.32;;;2.13;;
75626;SDS011;67372;49.404;11.034;2024-02-21T12:21:02;6.28;;;1.75;;
75626;SDS011;67372;49.404;11.034;2024-02-21T12:23:31;4.55;;;1.30;;
75626;SDS011;67372;49.404;11.034;2024-02-21T12:25:58;2.03;;;1.10;;
75626;SDS011;67372;49.404;11.034;2024-02-21T12:28:25;1.67;;;1.00;;
75626;SDS011;67372;49.404;11.034;2024-02-21T12:30:52;5.65;;;2.63;;
75626;SDS011;67372;49.404;11.034;2024-02-21T12:33:18;3.22;;;1.58;;
75626;SDS011;67372;49.404;11.034;2024-02-21T12:35:45;3.95;;;2.13;;
75626;SDS011;67372;49.404;11.034;2024-02-21T12:38:11;6.13;;;2.65;;
75626;SDS011;67372;49.404;11.034;2024-02-21T12:40:38;4.03;;;1.80;;
75626;SDS011;67372;49.404;11.034;2024-02-21T12:43:04;3.95;;;1.83;;
75626;SDS011;67372;49.404;11.034;2024-02-21T12:45:31;4.55;;;1.50;;
75626;SDS011;67372;49.404;11.034;2024-02-21T12:47:57;2.42;;;1.30;;
75626;SDS011;67372;49.404;11.034;2024-02-21T12:50:24;3.55;;;1.33;;
75626;SDS011;67372;49.404;11.034;2024-02-21T12:52:50;2.50;;;1.15;;
75626;SDS011;67372;49.404;11.034;2024-02-21T12:55:17;3.45;;;1.15;;
75626;SDS011;67372;49.404;11.034;2024-02-21T12:57:43;2.92;;;1.02;;
75626;SDS011;67372;49.404;11.034;2024-02-21T13:00:10;2.33;;;0.93;;
75626;SDS011;67372;49.404;11.034;2024-02-21T13:02:36;2.03;;;0.95;;
75626;SDS011;67372;49.404;11.034;2024-02-21T13:05:05;2.75;;;1.00;;
75626;SDS011;67372;49.404;11.034;2024-02-21T13:07:32;2.70;;;1.02;;
75626;SDS011;67372;49.404;11.034;2024-02-21T13:09:58;3.65;;;1.20;;
75626;SDS011;67372;49.404;11.034;2024-02-21T13:12:25;1.92;;;1.00;;
75626;SDS011;67372;49.404;11.034;2024-02-21T13:14:51;3.28;;;1.10;;
75626;SDS011;67372;49.404;11.034;2024-02-21T13:17:18;1.83;;;1.00;;
75626;SDS011;67372;49.404;11.034;2024-02-21T13:19:44;3.55;;;0.98;;
75626;SDS011;67372;49.404;11.034;2024-02-21T13:22:11;3.08;;;1.13;;
75626;SDS011;67372;49.404;11.034;2024-02-21T13:24:37;3.28;;;0.90;;
75626;SDS011;67372;49.404;11.034;2024-02-21T13:27:04;2.35;;;0.95;;
75626;SDS011;67372;49.404;11.034;2024-02-21T13:29:30;4.68;;;1.10;;
75626;SDS011;67372;49.404;11.034;2024-02-21T13:31:56;3.05;;;1.10;;
75626;SDS011;67372;49.404;11.034;2024-02-21T13:34:23;3.58;;;1.23;;
75626;SDS011;67372;49.404;11.034;2024-02-21T13:36:49;2.30;;;1.20;;
75626;SDS011;67372;49.404;11.034;2024-02-21T13:39:16;2.78;;;1.25;;
75626;SDS011;67372;49.404;11.034;2024-02-21T13:41:42;2.97;;;1.20;;
75626;SDS011;67372;49.404;11.034;2024-02-21T13:44:09;2.75;;;1.30;;
75626;SDS011;67372;49.404;11.034;2024-02-21T13:46:36;2.13;;;1.10;;
75626;SDS011;67372;49.404;11.034;2024-02-21T13:49:03;3.67;;;1.17;;
75626;SDS011;67372;49.404;11.034;2024-02-21T13:51:31;4.05;;;0.85;;
75626;SDS011;67372;49.404;11.034;2024-02-21T13:53:57;2.13;;;1.00;;
75626;SDS011;67372;49.404;11.034;2024-02-21T13:56:23;3.03;;;0.88;;
75626;SDS011;67372;49.404;11.034;2024-02-21T13:58:50;2.90;;;0.90;;
75626;SDS011;67372;49.404;11.034;2024-02-21T14:01:16;1.52;;;0.70;;
75626;SDS011;67372;49.404;11.034;2024-02-21T14:03:43;3.90;;;0.85;;
75626;SDS011;67372;49.404;11.034;2024-02-21T14:06:09;2.30;;;0.98;;
75626;SDS011;67372;49.404;11.034;2024-02-21T14:08:36;1.92;;;0.90;;
75626;SDS011;67372;49.404;11.034;2024-02-21T14:11:02;2.42;;;1.30;;
75626;SDS011;67372;49.404;11.034;2024-02-21T14:13:29;1.83;;;0.75;;
75626;SDS011;67372;49.404;11.034;2024-02-21T14:15:55;2.80;;;0.85;;
75626;SDS011;67372;49.404;11.034;2024-02-21T14:18:22;3.08;;;0.90;;
75626;SDS011;67372;49.404;11.034;2024-02-21T14:20:48;2.17;;;1.00;;
75626;SDS011;67372;49.404;11.034;2024-02-21T14:23:15;2.63;;;0.93;;
75626;SDS011;67372;49.404;11.034;2024-02-21T14:25:41;4.25;;;1.83;;
75626;SDS011;67372;49.404;11.034;2024-02-21T14:28:08;2.10;;;1.52;;
75626;SDS011;67372;49.404;11.034;2024-02-21T14:30:34;4.68;;;1.10;;
75626;SDS011;67372;49.404;11.034;2024-02-21T14:33:01;2.03;;;0.90;;
75626;SDS011;67372;49.404;11.034;2024-02-21T14:35:27;2.20;;;0.90;;
75626;SDS011;67372;49.404;11.034;2024-02-21T14:37:54;2.55;;;0.90;;
75626;SDS011;67372;49.404;11.034;2024-02-21T14:40:21;2.30;;;0.80;;
75626;SDS011;67372;49.404;11.034;2024-02-21T14:42:47;2.45;;;0.90;;
75626;SDS011;67372;49.404;11.034;2024-02-21T14:45:14;4.32;;;0.93;;
75626;SDS011;67372;49.404;11.034;2024-02-21T14:47:40;2.45;;;0.80;;
75626;SDS011;67372;49.404;11.034;2024-02-21T14:50:06;2.72;;;0.90;;
75626;SDS011;67372;49.404;11.034;2024-02-21T14:52:33;2.20;;;0.88;;